Time;durP1;ratioP1;P1;durP2;ratioP2;P2;SDS_P1;SDS_P2;PMS_P1;PMS_P2;Temp;Humidity;BMP_temperature;BMP_pressure;BME280_temperature;BME280_humidity;BME280_pressure;Samples;Min_cycle;Max_cycle;Signal;HPM_P1;HPM_P2
2022/06/28 00:00:17;;;;;;;10.07;8.63;;;13.40;99.90;;;;;;5031146;28;20433;-70
2022/06/28 00:02:43;;;;;;;10.88;9.32;;;;;;;;;;5030888;28;20029;-70
2022/06/28 00:05:10;;;;;;;13.02;10.43;;;14.20;99.90;;;;;;5030981;28;20030;-69
2022/06/28 00:07:36;;;;;;;12.32;11.25;;;13.30;99.90;;;;;;5031071;28;20499;-70
2022/06/28 00:10:02;;;;;;;11.52;10.38;;;13.30;99.90;;;;;;5030835;28;20061;-69
2022/06/28 00:12:28;;;;;;;11.27;10.27;;;13.30;99.90;;;;;;5030600;28;20021;-70
2022/06/28 00:17:38;;;;;;;13.35;12.18;;;13.30;99.90;;;;;;5030865;28;20032;-71
2022/06/28 00:20:05;;;;;;;15.43;10.90;;;13.30;99.90;;;;;;5030430;28;20029;-71
2022/06/28 00:22:30;;;;;;;11.93;10.45;;;13.30;99.90;;;;;;5030818;28;20029;-71
2022/06/28 00:24:56;;;;;;;12.45;11.32;;;13.40;99.90;;;;;;5030879;28;20099;-71
2022/06/28 00:27:21;;;;;;;15.32;11.45;;;13.30;99.90;;;;;;5030468;28;20060;-71
2022/06/28 00:29:47;;;;;;;13.38;12.10;;;;;;;;;;5030510;28;20057;-71
2022/06/28 00:32:13;;;;;;;14.95;12.98;;;13.50;99.90;;;;;;5030599;28;20028;-70
2022/06/28 00:34:38;;;;;;;14.25;12.85;;;13.50;99.90;;;;;;5030709;28;20030;-70
2022/06/28 00:37:04;;;;;;;14.25;12.80;;;13.40;99.90;;;;;;5030161;28;20017;-70
2022/06/28 00:39:30;;;;;;;15.40;13.95;;;13.50;99.90;;;;;;5030704;28;20099;-70
2022/06/28 00:41:56;;;;;;;13.65;12.45;;;13.50;99.90;;;;;;5029710;28;20017;-69
2022/06/28 00:44:22;;;;;;;13.60;12.45;;;13.50;99.90;;;;;;5030416;28;20109;-70
2022/06/28 00:46:48;;;;;;;15.77;14.27;;;13.50;99.90;;;;;;5030210;28;20014;-70
2022/06/28 00:49:14;;;;;;;13.73;12.48;;;13.40;99.90;;;;;;5030328;28;20025;-70
2022/06/28 00:51:40;;;;;;;15.70;14.13;;;;;;;;;;5030354;28;20022;-69
2022/06/28 00:54:07;;;;;;;14.98;13.05;;;13.40;99.90;;;;;;5030328;28;20556;-70
2022/06/28 00:56:33;;;;;;;14.75;13.25;;;13.30;99.90;;;;;;5029958;28;20057;-70
2022/06/28 00:58:59;;;;;;;14.02;12.63;;;;;;;;;;5030045;28;20045;-70
2022/06/28 01:01:26;;;;;;;13.18;11.88;;;13.30;99.90;;;;;;5030180;28;20022;-71
2022/06/28 01:03:53;;;;;;;14.32;13.00;;;13.10;99.90;;;;;;5029928;28;20040;-70
2022/06/28 01:06:18;;;;;;;15.07;13.35;;;13.10;99.90;;;;;;5029697;28;20348;-70
2022/06/28 01:08:47;;;;;;;14.18;12.98;;;13.10;99.90;;;;;;5029801;28;20049;-71
2022/06/28 01:11:20;;;;;;;14.52;13.05;;;13.50;99.90;;;;;;5029116;28;20064;-69
2022/06/28 01:13:54;;;;;;;14.10;12.65;;;13.00;99.90;;;;;;5029840;28;20067;-70
2022/06/28 01:16:21;;;;;;;14.13;12.77;;;13.00;99.90;;;;;;5029880;28;20032;-69
2022/06/28 01:18:47;;;;;;;14.30;12.85;;;13.00;99.90;;;;;;5029587;28;20037;-69
2022/06/28 01:21:14;;;;;;;14.35;13.05;;;13.00;99.90;;;;;;5029818;28;20025;-70
2022/06/28 01:23:42;;;;;;;26.52;14.52;;;12.80;99.90;;;;;;5030226;28;20032;-70
2022/06/28 01:26:09;;;;;;;16.40;14.85;;;12.90;99.90;;;;;;5029052;28;20022;-70
2022/06/28 01:28:35;;;;;;;14.80;13.30;;;12.90;99.90;;;;;;5030050;28;20032;-70
2022/06/28 01:31:01;;;;;;;15.60;14.30;;;12.90;99.90;;;;;;5029498;28;20022;-70
2022/06/28 01:33:27;;;;;;;14.35;12.95;;;12.90;99.90;;;;;;5029802;28;20034;-70
2022/06/28 01:35:53;;;;;;;16.65;14.32;;;;;;;;;;5029620;28;20067;-70
2022/06/28 01:38:18;;;;;;;19.48;14.63;;;12.80;99.90;;;;;;5029641;28;20051;-70
2022/06/28 01:40:46;;;;;;;17.63;15.90;;;12.80;99.90;;;;;;5029423;28;20036;-70
2022/06/28 01:43:14;;;;;;;15.20;13.77;;;12.70;99.90;;;;;;5029409;28;20393;-70
2022/06/28 01:45:41;;;;;;;16.48;14.77;;;12.60;99.90;;;;;;5029789;28;20028;-70
2022/06/28 01:48:07;;;;;;;17.33;15.63;;;12.70;99.90;;;;;;5029257;28;20485;-70
2022/06/28 01:50:33;;;;;;;17.63;15.82;;;;;;;;;;5028403;28;20383;-70
2022/06/28 01:52:59;;;;;;;16.30;14.70;;;12.90;99.90;;;;;;5029325;28;20040;-70
2022/06/28 01:55:24;;;;;;;18.58;15.35;;;12.70;99.90;;;;;;5029685;28;20486;-70
2022/06/28 01:57:50;;;;;;;18.50;16.55;;;12.60;99.90;;;;;;5029546;28;20079;-70
2022/06/28 02:00:16;;;;;;;18.77;15.75;;;12.60;99.90;;;;;;5029432;28;20033;-70
2022/06/28 02:02:42;;;;;;;18.33;16.52;;;12.50;99.90;;;;;;5029332;28;20037;-70
2022/06/28 02:05:08;;;;;;;16.48;14.88;;;12.30;99.90;;;;;;5028559;28;20030;-72
2022/06/28 02:07:34;;;;;;;18.00;16.45;;;;;;;;;;5015058;28;20487;-70
2022/06/28 02:10:00;;;;;;;20.60;18.50;;;12.50;99.90;;;;;;5029329;28;20037;-70
2022/06/28 02:12:28;;;;;;;20.35;18.23;;;12.60;99.90;;;;;;5029628;28;20025;-70
2022/06/28 02:14:55;;;;;;;22.00;19.98;;;12.50;99.90;;;;;;5029351;28;20017;-70
2022/06/28 02:17:21;;;;;;;20.35;18.33;;;12.70;99.90;;;;;;5027879;28;20116;-70
2022/06/28 02:19:47;;;;;;;20.30;18.38;;;;;;;;;;5029078;28;20113;-70
2022/06/28 02:22:12;;;;;;;20.42;18.30;;;12.50;99.90;;;;;;5032055;28;20124;-70
2022/06/28 02:24:38;;;;;;;20.65;18.63;;;12.40;99.90;;;;;;5032940;28;20534;-69
2022/06/28 02:27:04;;;;;;;20.02;18.23;;;12.40;99.90;;;;;;5033246;28;20021;-70
2022/06/28 02:29:30;;;;;;;20.98;18.88;;;12.30;99.90;;;;;;5032959;28;20501;-70
2022/06/28 02:31:55;;;;;;;22.92;20.52;;;12.30;99.90;;;;;;5033317;28;20021;-70
2022/06/28 02:42:33;;;;;;;;;;;12.30;99.90;;;;;;5033370;28;20052;-70
2022/06/28 02:44:59;;;;;;;20.52;18.60;;;;;;;;;;5032548;28;19952;-70
2022/06/28 02:47:24;;;;;;;19.85;17.92;;;12.30;99.90;;;;;;5032786;28;20537;-70
2022/06/28 02:49:50;;;;;;;20.02;18.13;;;12.30;99.90;;;;;;5032625;28;20104;-70
2022/06/28 02:52:15;;;;;;;20.42;18.48;;;12.20;99.90;;;;;;5031951;28;20017;-70
2022/06/28 02:54:41;;;;;;;21.42;19.15;;;12.20;99.90;;;;;;5032453;28;20367;-70
2022/06/28 02:57:06;;;;;;;20.40;18.20;;;12.20;99.90;;;;;;5032416;28;20355;-70
2022/06/28 02:59:32;;;;;;;19.33;17.40;;;;;;;;;;5032504;28;20038;-70
2022/06/28 03:01:58;;;;;;;19.85;17.90;;;12.20;99.90;;;;;;5032291;28;20051;-70
2022/06/28 03:04:24;;;;;;;21.58;18.90;;;12.10;99.90;;;;;;5032830;28;20033;-70
2022/06/28 03:06:49;;;;;;;19.85;17.75;;;12.20;99.90;;;;;;5031673;28;20068;-69
2022/06/28 03:09:14;;;;;;;20.48;18.50;;;12.10;99.90;;;;;;5031977;28;20063;-70
2022/06/28 03:11:40;;;;;;;20.27;18.02;;;12.30;99.90;;;;;;5032044;28;20025;-70
2022/06/28 03:14:06;;;;;;;19.60;17.38;;;12.00;99.90;;;;;;5032034;28;20035;-70
2022/06/28 03:16:32;;;;;;;18.52;16.77;;;;;;;;;;5032097;28;20152;-70
2022/06/28 03:18:57;;;;;;;22.15;19.20;;;12.10;99.90;;;;;;5032139;28;20080;-69
2022/06/28 03:21:23;;;;;;;19.23;17.35;;;12.00;99.90;;;;;;5031501;28;20025;-70
2022/06/28 03:23:48;;;;;;;21.08;18.77;;;11.70;99.90;;;;;;5031779;28;20459;-69
2022/06/28 03:26:14;;;;;;;19.05;17.23;;;12.00;99.90;;;;;;5031801;28;20021;-70
2022/06/28 03:28:40;;;;;;;21.08;18.83;;;;;;;;;;5031824;28;20035;-69
2022/06/28 03:31:06;;;;;;;18.55;16.70;;;11.90;99.90;;;;;;5031599;28;20029;-70
2022/06/28 03:33:32;;;;;;;19.73;17.80;;;;;;;;;;5030063;28;20108;-70
2022/06/28 03:35:58;;;;;;;18.95;16.85;;;12.00;99.90;;;;;;5031185;28;20022;-70
2022/06/28 03:38:23;;;;;;;16.73;15.02;;;12.00;99.90;;;;;;5031658;28;20410;-70
2022/06/28 03:40:49;;;;;;;20.20;17.40;;;12.00;99.90;;;;;;5031526;28;20018;-69
2022/06/28 03:43:15;;;;;;;20.40;18.50;;;;;;;;;;5031504;28;20068;-70
2022/06/28 03:45:41;;;;;;;20.23;18.17;;;11.90;99.90;;;;;;5031556;28;20021;-70
2022/06/28 03:48:06;;;;;;;18.65;16.55;;;12.00;99.90;;;;;;5031461;28;20026;-70
2022/06/28 03:50:32;;;;;;;18.70;16.90;;;12.00;99.90;;;;;;5031137;28;20386;-69
2022/06/28 03:52:58;;;;;;;19.65;16.25;;;11.50;99.90;;;;;;5031127;28;20025;-69
2022/06/28 03:55:24;;;;;;;17.77;15.98;;;12.10;99.90;;;;;;5031506;28;20045;-70
2022/06/28 03:57:49;;;;;;;17.98;16.23;;;12.10;99.90;;;;;;5031019;28;20079;-69
2022/06/28 04:00:15;;;;;;;22.38;17.13;;;;;;;;;;5031076;28;20045;-69
2022/06/28 04:02:41;;;;;;;19.15;17.35;;;12.00;99.90;;;;;;5031115;28;20403;-70
2022/06/28 04:05:07;;;;;;;17.52;15.80;;;12.50;99.90;;;;;;5029348;28;20120;-70
2022/06/28 04:07:33;;;;;;;16.55;14.68;;;11.90;99.90;;;;;;5030860;28;20451;-70
2022/06/28 04:09:59;;;;;;;19.13;17.23;;;;;;;;;;5030935;28;20087;-70
2022/06/28 04:12:25;;;;;;;18.65;16.80;;;;;;;;;;5031241;28;20463;-70
2022/06/28 04:14:50;;;;;;;18.15;16.30;;;12.00;99.90;;;;;;5031280;28;20451;-70
2022/06/28 04:17:16;;;;;;;16.65;15.05;;;12.10;99.90;;;;;;5031381;28;20475;-70
2022/06/28 04:19:42;;;;;;;17.92;16.00;;;;;;;;;;5030787;28;20036;-70
2022/06/28 04:22:07;;;;;;;17.15;15.43;;;12.10;99.90;;;;;;5030678;28;20021;-70
2022/06/28 04:24:33;;;;;;;17.23;15.43;;;12.00;99.90;;;;;;5030818;28;20033;-69
2022/06/28 04:26:59;;;;;;;18.33;16.38;;;;;;;;;;5030465;28;20095;-69
2022/06/28 04:29:25;;;;;;;17.15;15.13;;;;;;;;;;5031033;28;20166;-70
2022/06/28 04:31:51;;;;;;;16.83;14.90;;;12.20;99.90;;;;;;5029298;28;20525;-70
2022/06/28 04:34:16;;;;;;;18.05;14.88;;;12.20;99.90;;;;;;5030163;28;20021;-69
2022/06/28 04:36:42;;;;;;;16.80;13.82;;;12.20;99.90;;;;;;5030801;28;20139;-70
2022/06/28 04:39:07;;;;;;;16.75;14.40;;;12.20;99.90;;;;;;5030307;28;20129;-70
2022/06/28 04:41:33;;;;;;;15.40;13.82;;;12.30;99.90;;;;;;5030904;28;20032;-70
2022/06/28 04:43:59;;;;;;;15.20;13.57;;;;;;;;;;5029439;28;20028;-70
2022/06/28 04:46:25;;;;;;;18.65;14.80;;;;;;;;;;5029902;28;20537;-69
2022/06/28 04:48:51;;;;;;;17.30;14.50;;;;;;;;;;5029368;28;20021;-70
2022/06/28 04:51:17;;;;;;;17.38;14.48;;;;;;;;;;5029200;28;20021;-69
2022/06/28 04:53:47;;;;;;;16.48;14.05;;;12.50;99.90;;;;;;5029919;28;20397;-70
2022/06/28 04:56:13;;;;;;;15.27;13.48;;;12.50;99.90;;;;;;5029671;28;20028;-69
2022/06/28 04:58:39;;;;;;;17.00;14.18;;;;;;;;;;5029520;28;20037;-70
2022/06/28 05:01:05;;;;;;;16.50;14.45;;;12.60;99.90;;;;;;5024656;28;20017;-71
2022/06/28 05:03:31;;;;;;;16.13;14.00;;;12.80;99.90;;;;;;5029292;28;20128;-71
2022/06/28 05:05:57;;;;;;;15.85;14.25;;;12.80;99.90;;;;;;5029404;28;20079;-72
2022/06/28 05:08:23;;;;;;;14.73;13.20;;;;;;;;;;5028164;28;20056;-70
2022/06/28 05:10:49;;;;;;;14.77;12.98;;;13.10;99.90;;;;;;5027763;28;20653;-70
2022/06/28 05:13:14;;;;;;;15.57;13.55;;;;;;;;;;5027793;28;20055;-69
2022/06/28 05:15:40;;;;;;;14.32;12.52;;;13.20;99.90;;;;;;5029855;28;20057;-72
2022/06/28 05:18:06;;;;;;;13.00;11.70;;;13.20;99.90;;;;;;5029278;28;20025;-71
2022/06/28 05:20:31;;;;;;;17.83;12.60;;;13.30;99.90;;;;;;5029850;28;20409;-72
2022/06/28 05:22:57;;;;;;;19.48;11.77;;;13.60;99.90;;;;;;5029736;28;20021;-72
2022/06/28 05:25:25;;;;;;;14.60;11.40;;;13.30;99.90;;;;;;5029737;28;20032;-72
2022/06/28 05:27:51;;;;;;;13.02;11.23;;;;;;;;;;5029663;28;20474;-72
2022/06/28 05:30:16;;;;;;;11.40;9.20;;;13.60;99.90;;;;;;5029616;28;20026;-71
2022/06/28 05:32:42;;;;;;;11.90;10.18;;;;;;;;;;5029060;28;20052;-71
2022/06/28 05:35:08;;;;;;;11.38;9.13;;;13.60;99.90;;;;;;5029456;28;20025;-72
2022/06/28 05:37:34;;;;;;;14.88;9.00;;;;;;;;;;5029531;28;20029;-70
2022/06/28 05:40:00;;;;;;;13.63;8.57;;;14.00;99.90;;;;;;5029398;28;20033;-70
2022/06/28 05:42:25;;;;;;;13.15;8.77;;;13.90;99.90;;;;;;5029818;28;20025;-70
2022/06/28 05:44:51;;;;;;;12.98;8.65;;;13.80;99.90;;;;;;5029495;28;20026;-71
2022/06/28 05:47:16;;;;;;;11.63;8.65;;;13.90;99.90;;;;;;5027704;28;20121;-71
2022/06/28 05:49:42;;;;;;;11.93;7.90;;;;;;;;;;5029404;28;20475;-71
2022/06/28 05:52:08;;;;;;;12.50;8.68;;;14.00;99.90;;;;;;5029536;28;20398;-71
2022/06/28 05:54:35;;;;;;;9.48;8.05;;;;;;;;;;5029713;28;20088;-72
2022/06/28 05:57:01;;;;;;;13.68;8.15;;;;;;;;;;5032594;28;20045;-72
2022/06/28 05:59:27;;;;;;;10.73;7.97;;;14.20;99.90;;;;;;5033038;28;20033;-72
2022/06/28 06:01:55;;;;;;;11.63;7.38;;;14.60;99.90;;;;;;5033604;28;20459;-72
2022/06/28 06:04:25;;;;;;;10.48;7.85;;;14.50;99.90;;;;;;5031788;28;20471;-71
2022/06/28 06:06:51;;;;;;;13.18;7.22;;;14.50;99.90;;;;;;5033184;28;20048;-71
2022/06/28 06:09:17;;;;;;;9.30;7.60;;;14.50;99.90;;;;;;5033283;28;20021;-71
2022/06/28 06:11:44;;;;;;;14.32;8.35;;;14.70;99.90;;;;;;5033593;28;20501;-71
2022/06/28 06:14:10;;;;;;;10.50;7.93;;;14.80;99.90;;;;;;5032712;28;20056;-71
2022/06/28 06:16:36;;;;;;;7.43;6.65;;;14.90;99.90;;;;;;5033296;28;20434;-72
2022/06/28 06:19:01;;;;;;;11.18;7.55;;;14.90;99.90;;;;;;5032616;28;20050;-72
2022/06/28 06:21:27;;;;;;;10.68;7.40;;;14.80;99.90;;;;;;5033219;28;20101;-71
2022/06/28 06:23:53;;;;;;;8.82;7.47;;;;;;;;;;5033059;28;20552;-72
2022/06/28 06:26:18;;;;;;;9.80;5.95;;;15.20;99.90;;;;;;5033132;28;20045;-71
2022/06/28 06:28:44;;;;;;;10.90;6.22;;;15.10;99.90;;;;;;5032446;28;20390;-71
2022/06/28 06:31:09;;;;;;;11.38;5.72;;;15.40;99.90;;;;;;5032987;28;20083;-71
2022/06/28 06:33:35;;;;;;;13.45;5.97;;;15.40;99.90;;;;;;5033167;28;20100;-71
2022/06/28 06:36:02;;;;;;;9.07;5.97;;;15.10;99.90;;;;;;5033105;28;20522;-71
2022/06/28 06:38:28;;;;;;;13.32;6.38;;;15.50;99.90;;;;;;5032878;28;20135;-71
2022/06/28 06:40:55;;;;;;;6.47;5.13;;;15.50;99.90;;;;;;5032807;28;20052;-71
2022/06/28 06:43:21;;;;;;;10.48;6.03;;;15.60;99.90;;;;;;5032397;28;20021;-71
2022/06/28 06:45:47;;;;;;;17.95;5.15;;;15.70;99.90;;;;;;5032519;28;20030;-69
2022/06/28 06:48:12;;;;;;;14.65;5.75;;;15.40;99.90;;;;;;5032383;28;20028;-69
2022/06/28 06:50:38;;;;;;;14.45;6.35;;;15.80;99.90;;;;;;5032968;28;20037;-69
2022/06/28 06:53:04;;;;;;;13.98;5.20;;;15.80;99.90;;;;;;5032296;28;20080;-69
2022/06/28 06:55:30;;;;;;;13.55;5.78;;;15.90;99.90;;;;;;5032798;28;20029;-69
2022/06/28 06:57:55;;;;;;;11.68;5.88;;;15.70;99.90;;;;;;5031780;28;20471;-69
2022/06/28 07:00:21;;;;;;;14.77;6.05;;;15.80;99.90;;;;;;5032392;28;20061;-69
2022/06/28 07:02:47;;;;;;;15.07;6.15;;;15.80;99.90;;;;;;5032204;28;20029;-69
2022/06/28 07:05:13;;;;;;;12.60;5.88;;;16.10;99.90;;;;;;5032191;28;20029;-69
2022/06/28 07:07:39;;;;;;;13.00;6.43;;;16.20;99.90;;;;;;5031147;28;20053;-69
2022/06/28 07:10:05;;;;;;;10.00;5.47;;;16.20;99.90;;;;;;5027142;28;20376;-69
2022/06/28 07:12:31;;;;;;;13.82;6.50;;;15.80;99.90;;;;;;5027040;28;20028;-69
2022/06/28 07:14:57;;;;;;;12.55;5.70;;;16.00;99.90;;;;;;5028777;28;20029;-69
2022/06/28 07:17:23;;;;;;;15.32;6.25;;;16.20;99.90;;;;;;5030782;28;20033;-69
2022/06/28 07:19:48;;;;;;;14.70;5.63;;;16.20;99.90;;;;;;5031202;28;20036;-69
2022/06/28 07:22:14;;;;;;;10.98;5.00;;;16.40;99.90;;;;;;5029594;28;20048;-69
2022/06/28 07:24:39;;;;;;;10.45;6.03;;;16.50;99.90;;;;;;5031675;28;20382;-69
2022/06/28 07:27:05;;;;;;;13.68;6.28;;;16.60;99.90;;;;;;5024315;28;20029;-69
2022/06/28 07:29:31;;;;;;;10.77;6.15;;;16.70;99.90;;;;;;5031153;28;20060;-69
2022/06/28 07:31:56;;;;;;;13.05;5.95;;;16.50;99.90;;;;;;5014217;28;20044;-70
2022/06/28 07:34:22;;;;;;;14.55;7.03;;;17.00;99.90;;;;;;5027961;28;20027;-69
2022/06/28 07:36:48;;;;;;;13.40;6.13;;;16.80;99.90;;;;;;5024003;28;20053;-69
2022/06/28 07:39:14;;;;;;;12.32;5.78;;;16.90;99.90;;;;;;5030047;28;20461;-69
2022/06/28 07:41:39;;;;;;;12.48;5.60;;;17.00;99.90;;;;;;5030030;28;20017;-69
2022/06/28 07:44:05;;;;;;;11.80;5.72;;;17.20;99.90;;;;;;5028323;28;20395;-69
2022/06/28 07:46:31;;;;;;;13.05;5.55;;;18.40;99.90;;;;;;5030702;28;20029;-69
2022/06/28 07:48:56;;;;;;;10.73;5.45;;;17.40;99.90;;;;;;5030728;28;20025;-69
2022/06/28 07:54:06;;;;;;;12.50;5.63;;;17.40;99.90;;;;;;5030967;28;20087;-69
2022/06/28 07:56:32;;;;;;;9.32;4.35;;;17.50;99.90;;;;;;5030790;28;20029;-69
2022/06/28 07:58:57;;;;;;;10.93;4.10;;;17.60;99.90;;;;;;5030745;28;20120;-69
2022/06/28 08:01:23;;;;;;;11.68;3.83;;;17.80;99.90;;;;;;5030951;28;20048;-70
2022/06/28 08:03:48;;;;;;;16.13;5.13;;;17.80;99.90;;;;;;5031040;28;20030;-69
2022/06/28 08:06:14;;;;;;;10.80;4.35;;;17.90;99.90;;;;;;5031001;28;20021;-69
2022/06/28 08:08:40;;;;;;;7.93;3.25;;;18.00;99.90;;;;;;5030972;28;20083;-69
2022/06/28 08:11:05;;;;;;;7.82;2.85;;;18.00;99.90;;;;;;5030658;28;20390;-69
2022/06/28 08:13:31;;;;;;;11.02;2.85;;;18.10;99.90;;;;;;5031053;28;20037;-70
2022/06/28 08:15:58;;;;;;;11.98;2.85;;;18.10;99.90;;;;;;5030637;28;20030;-70
2022/06/28 08:18:23;;;;;;;7.60;2.50;;;18.20;99.90;;;;;;5030942;28;20022;-69
2022/06/28 08:20:49;;;;;;;8.07;2.17;;;18.30;99.90;;;;;;5030789;28;20123;-69
2022/06/28 08:23:15;;;;;;;9.55;2.42;;;18.30;99.90;;;;;;5030772;28;20025;-69
2022/06/28 08:25:43;;;;;;;10.07;2.35;;;18.30;99.90;;;;;;5030446;28;20753;-71
2022/06/28 08:28:10;;;;;;;6.40;1.80;;;18.40;99.90;;;;;;5030670;28;20029;-70
2022/06/28 08:30:36;;;;;;;11.20;2.20;;;18.40;99.90;;;;;;5022900;28;20025;-70
2022/06/28 08:33:02;;;;;;;8.27;1.42;;;18.40;99.90;;;;;;5030382;28;20470;-69
2022/06/28 08:35:28;;;;;;;10.60;1.80;;;18.70;99.90;;;;;;5030850;28;20032;-69
2022/06/28 08:37:53;;;;;;;11.77;2.13;;;18.70;99.90;;;;;;5030512;28;20033;-69
2022/06/28 08:40:25;;;;;;;4.95;1.67;;;18.60;99.90;;;;;;5029877;28;20038;-70
2022/06/28 08:42:54;;;;;;;8.88;1.88;;;18.50;99.90;;;;;;5030449;28;20049;-69
2022/06/28 08:45:22;;;;;;;6.10;1.80;;;18.60;99.90;;;;;;5030314;28;20064;-69
2022/06/28 08:47:51;;;;;;;9.30;2.28;;;18.70;99.90;;;;;;5030183;28;20102;-69
2022/06/28 08:50:32;;;;;;;4.38;1.58;;;18.70;99.90;;;;;;5030225;28;20104;-69
2022/06/28 08:53:03;;;;;;;7.07;1.83;;;18.80;99.90;;;;;;5030062;28;20025;-69
2022/06/28 08:55:31;;;;;;;5.55;1.77;;;18.80;99.90;;;;;;5028857;28;20071;-70
2022/06/28 08:58:01;;;;;;;6.72;1.48;;;18.80;99.90;;;;;;5029936;28;20030;-70
2022/06/28 09:00:27;;;;;;;5.97;1.42;;;18.80;99.90;;;;;;5030459;28;20041;-69
2022/06/28 09:02:54;;;;;;;7.28;1.83;;;18.80;99.90;;;;;;5030023;28;20104;-69
2022/06/28 09:05:24;;;;;;;6.07;2.00;;;18.90;99.90;;;;;;5029908;28;20504;-69
2022/06/28 09:07:50;;;;;;;8.93;2.00;;;18.90;99.90;;;;;;5029892;28;20457;-69
2022/06/28 09:10:19;;;;;;;5.93;2.05;;;19.00;99.90;;;;;;5029478;28;20379;-69
2022/06/28 09:12:54;;;;;;;2.45;0.85;;;19.10;99.90;;;;;;5030002;28;20471;-69
2022/06/28 09:15:22;;;;;;;9.77;0.93;;;19.10;99.90;;;;;;5029947;28;20030;-69
2022/06/28 09:17:52;;;;;;;3.70;1.05;;;19.20;99.90;;;;;;5029992;28;20032;-69
2022/06/28 09:20:17;;;;;;;5.18;0.70;;;19.20;99.90;;;;;;5030258;28;20355;-69
2022/06/28 09:22:44;;;;;;;2.25;0.70;;;19.30;99.90;;;;;;5029201;28;20030;-69
2022/06/28 09:25:27;;;;;;;4.10;0.93;;;19.40;99.80;;;;;;5029781;28;20379;-69
2022/06/28 09:28:01;;;;;;;6.55;0.68;;;19.40;99.20;;;;;;5028466;28;20059;-69
2022/06/28 09:30:29;;;;;;;4.18;1.58;;;19.40;99.10;;;;;;5029431;28;20029;-69
2022/06/28 09:32:54;;;;;;;3.97;1.00;;;19.40;99.30;;;;;;5029592;28;20095;-69
2022/06/28 09:35:24;;;;;;;4.68;1.52;;;20.00;99.00;;;;;;5029587;28;20053;-69
2022/06/28 09:37:50;;;;;;;3.33;0.70;;;20.70;99.00;;;;;;5029087;28;20088;-69
2022/06/28 09:40:18;;;;;;;2.38;0.70;;;19.40;98.20;;;;;;5029559;28;20033;-69
2022/06/28 09:42:46;;;;;;;4.05;0.80;;;19.50;98.30;;;;;;5029615;28;20021;-69
2022/06/28 09:45:13;;;;;;;4.80;0.88;;;19.60;98.00;;;;;;5029436;28;20028;-69
2022/06/28 09:47:45;;;;;;;6.07;0.85;;;19.60;97.70;;;;;;5029030;28;20021;-69
2022/06/28 09:50:17;;;;;;;4.38;1.40;;;19.70;97.60;;;;;;5029287;28;20048;-69
2022/06/28 09:52:45;;;;;;;1.55;0.50;;;19.70;97.40;;;;;;5028816;28;20076;-69
2022/06/28 09:55:15;;;;;;;5.47;1.95;;;19.70;96.70;;;;;;5029462;28;20385;-69
2022/06/28 09:57:47;;;;;;;2.25;0.82;;;19.70;95.40;;;;;;5029385;28;20026;-69
2022/06/28 10:00:15;;;;;;;3.13;1.52;;;19.60;96.40;;;;;;5029038;28;20029;-69
2022/06/28 10:02:42;;;;;;;4.13;0.70;;;19.80;96.10;;;;;;5029641;28;20021;-69
2022/06/28 10:05:09;;;;;;;3.92;0.80;;;19.80;96.30;;;;;;5028074;28;20450;-69
2022/06/28 10:07:35;;;;;;;2.33;0.88;;;19.80;96.10;;;;;;5028723;28;20397;-69
2022/06/28 10:10:03;;;;;;;2.85;1.00;;;19.80;95.80;;;;;;5029120;28;20021;-69
2022/06/28 10:15:21;;;;;;;;;;;19.90;95.10;;;;;;5029836;28;20068;-69
2022/06/28 10:17:58;;;;;;;4.90;0.70;;;20.00;95.70;;;;;;5029221;28;19932;-69
2022/06/28 10:20:30;;;;;;;2.65;0.73;;;20.00;95.70;;;;;;5028060;28;20494;-69
2022/06/28 10:23:24;;;;;;;3.00;0.70;;;20.10;94.20;;;;;;5029334;28;20017;-69
2022/06/28 10:26:11;;;;;;;3.58;0.70;;;20.10;94.70;;;;;;5029148;28;20470;-69
2022/06/28 10:28:43;;;;;;;2.15;0.55;;;20.20;94.10;;;;;;5029268;28;20101;-71
2022/06/28 10:31:23;;;;;;;2.53;0.50;;;20.10;93.80;;;;;;5028916;28;20029;-69
2022/06/28 10:33:49;;;;;;;8.93;1.45;;;20.20;94.90;;;;;;5029238;28;20479;-70
2022/06/28 10:36:17;;;;;;;2.30;1.05;;;20.20;94.30;;;;;;5028280;28;20021;-69
2022/06/28 10:39:01;;;;;;;4.57;1.05;;;20.30;94.50;;;;;;5028873;28;20044;-69
2022/06/28 10:41:41;;;;;;;;;;;20.40;94.90;;;;;;5029515;28;20017;-69
2022/06/28 10:44:27;;;;;;;1.17;0.73;;;20.40;94.30;;;;;;5031974;28;19912;-69
2022/06/28 10:47:01;;;;;;;3.42;0.70;;;20.60;94.90;;;;;;5032446;28;20022;-71
2022/06/28 10:49:42;;;;;;;2.83;0.50;;;20.70;94.50;;;;;;5032181;28;20068;-69
2022/06/28 10:52:14;;;;;;;2.35;0.50;;;20.60;93.20;;;;;;5031142;28;20025;-69
2022/06/28 10:55:03;;;;;;;1.95;0.40;;;20.70;94.10;;;;;;5032204;28;20017;-69
2022/06/28 10:57:38;;;;;;;4.22;0.60;;;20.80;93.60;;;;;;5032503;28;20370;-69
2022/06/28 11:00:26;;;;;;;2.72;0.68;;;20.90;93.00;;;;;;5032039;28;20113;-69
2022/06/28 11:02:52;;;;;;;2.58;0.55;;;21.10;92.90;;;;;;5030924;28;20472;-69
2022/06/28 11:05:26;;;;;;;2.25;0.60;;;21.00;93.30;;;;;;5031698;28;20149;-69
2022/06/28 11:08:11;;;;;;;3.40;0.60;;;22.50;93.80;;;;;;5031868;28;20115;-69
2022/06/28 11:11:04;;;;;;;1.42;0.38;;;21.20;93.40;;;;;;5032030;28;20083;-69
2022/06/28 11:13:30;;;;;;;1.55;0.52;;;21.10;92.20;;;;;;5032064;28;20083;-69
2022/06/28 11:15:55;;;;;;;3.28;0.60;;;21.00;92.80;;;;;;5031720;28;20025;-69
2022/06/28 11:18:23;;;;;;;1.20;0.90;;;21.00;92.90;;;;;;5031920;28;20022;-69
2022/06/28 11:20:49;;;;;;;2.88;0.45;;;21.10;92.70;;;;;;5031431;28;20463;-69
2022/06/28 11:23:26;;;;;;;2.20;0.93;;;21.10;92.40;;;;;;5031765;28;20030;-69
2022/06/28 11:29:03;;;;;;;1.50;0.60;;;21.20;92.40;;;;;;5031715;28;20485;-70
2022/06/28 11:31:38;;;;;;;2.55;0.80;;;21.30;92.90;;;;;;5029018;28;20067;-70
2022/06/28 11:34:04;;;;;;;3.17;0.55;;;21.30;92.30;;;;;;5030994;28;20475;-70
2022/06/28 11:36:32;;;;;;;2.97;0.50;;;21.30;92.30;;;;;;5031899;28;20056;-70
2022/06/28 11:39:18;;;;;;;2.55;0.73;;;22.00;91.60;;;;;;5031065;28;20525;-70
2022/06/28 11:41:48;;;;;;;2.55;0.40;;;21.10;92.70;;;;;;5031419;28;20076;-70
2022/06/28 11:44:14;;;;;;;1.92;0.70;;;21.20;92.60;;;;;;5031360;28;20705;-70
2022/06/28 11:46:40;;;;;;;1.77;0.70;;;21.10;92.30;;;;;;5030301;28;20557;-70
2022/06/28 11:49:05;;;;;;;1.95;0.60;;;21.20;92.50;;;;;;5030952;28;20026;-70
2022/06/28 11:51:32;;;;;;;1.73;0.60;;;21.20;92.40;;;;;;5031558;28;20048;-70
2022/06/28 11:54:06;;;;;;;4.07;0.75;;;21.30;92.30;;;;;;5030962;28;20044;-70
2022/06/28 11:56:45;;;;;;;5.25;1.08;;;21.60;92.30;;;;;;5031421;28;20492;-72
2022/06/28 11:59:11;;;;;;;2.25;0.63;;;21.60;92.00;;;;;;5031155;28;20029;-70
2022/06/28 12:01:39;;;;;;;3.60;0.82;;;22.30;91.70;;;;;;5031112;28;20030;-70
2022/06/28 12:04:06;;;;;;;2.22;0.70;;;21.60;91.70;;;;;;5030632;28;20028;-70
2022/06/28 12:06:34;;;;;;;2.63;0.80;;;21.60;91.50;;;;;;5031363;28;20030;-70
2022/06/28 12:09:05;;;;;;;2.53;0.55;;;21.80;91.90;;;;;;5029381;28;20041;-70
2022/06/28 12:11:44;;;;;;;3.60;0.77;;;22.00;91.10;;;;;;5031076;28;20176;-70
2022/06/28 12:14:15;;;;;;;2.25;0.75;;;22.20;91.30;;;;;;5031007;28;20355;-70
2022/06/28 12:16:45;;;;;;;5.25;0.70;;;22.40;90.90;;;;;;5030556;28;20097;-70
2022/06/28 12:19:15;;;;;;;1.63;0.68;;;22.50;91.50;;;;;;5030500;28;20021;-70
2022/06/28 12:22:06;;;;;;;1.88;0.50;;;22.60;90.90;;;;;;5030946;28;20025;-70
2022/06/28 12:24:45;;;;;;;1.33;0.60;;;22.90;90.00;;;;;;5030957;28;20395;-70
2022/06/28 12:27:18;;;;;;;2.33;0.90;;;22.90;90.60;;;;;;5030709;28;20036;-70
2022/06/28 12:29:44;;;;;;;3.38;0.65;;;22.90;90.40;;;;;;5030496;28;20100;-70
2022/06/28 12:32:11;;;;;;;4.88;0.80;;;23.00;90.20;;;;;;5030189;28;20026;-69
2022/06/28 12:34:37;;;;;;;2.78;0.50;;;23.10;90.10;;;;;;5030649;28;20036;-68
2022/06/28 12:37:03;;;;;;;1.88;0.40;;;24.60;90.20;;;;;;5030482;28;20083;-69
2022/06/28 12:39:29;;;;;;;4.60;0.60;;;23.10;88.90;;;;;;5030566;28;20033;-68
2022/06/28 12:41:54;;;;;;;2.60;0.47;;;23.10;89.20;;;;;;5030679;28;20417;-69
2022/06/28 12:44:20;;;;;;;2.30;0.57;;;23.30;88.40;;;;;;5030302;28;20056;-68
2022/06/28 12:46:46;;;;;;;4.15;0.60;;;24.50;88.70;;;;;;5028407;28;20048;-69
2022/06/28 12:49:11;;;;;;;3.00;0.80;;;23.20;88.10;;;;;;5030355;28;20029;-68
2022/06/28 12:51:38;;;;;;;2.78;0.65;;;24.40;88.00;;;;;;5029908;28;20148;-69
2022/06/28 12:54:04;;;;;;;4.07;0.70;;;23.20;87.50;;;;;;5029721;28;20037;-69
2022/06/28 12:56:29;;;;;;;4.03;0.80;;;23.20;87.10;;;;;;5030851;28;20059;-69
2022/06/28 12:58:58;;;;;;;2.33;0.40;;;24.60;87.60;;;;;;5029763;28;20030;-69
2022/06/28 13:01:24;;;;;;;2.88;0.65;;;23.60;85.50;;;;;;5029958;28;20026;-69
2022/06/28 13:03:50;;;;;;;1.67;0.43;;;23.30;87.10;;;;;;5029902;28;20035;-69
2022/06/28 13:06:16;;;;;;;3.40;0.88;;;23.90;87.50;;;;;;5029314;28;20378;-68
2022/06/28 13:08:42;;;;;;;4.35;0.60;;;23.30;86.10;;;;;;5029604;28;20103;-69